Time;durP1;ratioP1;P1;durP2;ratioP2;P2;SDS_P1;SDS_P2;PMS_P1;PMS_P2;Temp;Humidity;BMP_temperature;BMP_pressure;BME280_temperature;BME280_humidity;BME280_pressure;Samples;Min_cycle;Max_cycle;Signal;HPM_P1;HPM_P2
2021/06/27 00:00:38;;;;;;;24.90;20.30;;;14.80;99.90;;;;;;4967759;28;20149;-91
2021/06/27 00:03:06;;;;;;;26.58;20.45;;;14.70;99.90;;;;;;4987479;28;20062;-92
2021/06/27 00:05:34;;;;;;;22.38;19.70;;;14.80;99.90;;;;;;4989392;28;20696;-93
2021/06/27 00:08:02;;;;;;;23.95;19.80;;;14.80;99.90;;;;;;4975496;28;20114;-92
2021/06/27 00:10:35;;;;;;;24.63;19.95;;;14.80;99.90;;;;;;4983911;28;20114;-92
2021/06/27 00:13:04;;;;;;;24.95;20.88;;;14.70;99.90;;;;;;4976641;28;20137;-91
2021/06/27 00:15:41;;;;;;;25.42;20.08;;;14.70;99.90;;;;;;4987262;28;20109;-90
2021/06/27 00:18:11;;;;;;;23.83;19.88;;;14.60;99.90;;;;;;5005515;28;20058;-92
2021/06/27 00:20:44;;;;;;;25.33;19.83;;;14.60;99.90;;;;;;5003634;28;20119;-92
2021/06/27 00:23:14;;;;;;;25.48;20.05;;;14.60;99.90;;;;;;5003813;28;20127;-90
2021/06/27 00:25:41;;;;;;;24.95;20.45;;;14.60;99.90;;;;;;5004746;28;20081;-91
2021/06/27 00:28:09;;;;;;;25.83;19.92;;;14.60;99.90;;;;;;4994947;28;20111;-91
2021/06/27 00:30:37;;;;;;;26.00;20.02;;;14.60;99.90;;;;;;4995374;28;20106;-91
2021/06/27 00:33:06;;;;;;;24.60;20.45;;;14.50;99.90;;;;;;5000416;28;20051;-91
2021/06/27 00:35:36;;;;;;;27.65;20.90;;;14.40;99.90;;;;;;5003136;28;20076;-90
2021/06/27 00:38:04;;;;;;;28.92;21.05;;;14.40;99.90;;;;;;5008926;28;20081;-91
2021/06/27 00:40:33;;;;;;;27.55;22.33;;;14.40;99.90;;;;;;4977458;28;20086;-93
2021/06/27 00:43:02;;;;;;;26.77;21.20;;;14.40;99.90;;;;;;4975060;28;20125;-93
2021/06/27 00:45:31;;;;;;;27.52;22.25;;;14.40;99.90;;;;;;4987282;28;20134;-91
2021/06/27 00:48:01;;;;;;;26.25;21.50;;;14.40;99.90;;;;;;4982728;28;20046;-90
2021/06/27 00:50:51;;;;;;;32.05;24.75;;;14.40;99.90;;;;;;4970059;28;20150;-91
2021/06/27 00:53:19;;;;;;;33.28;23.50;;;14.40;99.90;;;;;;4951859;29;20054;-91
2021/06/27 00:55:54;;;;;;;30.65;23.17;;;14.40;99.90;;;;;;4975623;28;20158;-90
2021/06/27 00:58:39;;;;;;;27.92;21.73;;;14.40;99.90;;;;;;4981684;28;20052;-92
2021/06/27 01:01:10;;;;;;;27.77;20.50;;;14.40;99.90;;;;;;4973993;28;20107;-91
2021/06/27 01:03:37;;;;;;;26.30;21.97;;;14.30;99.90;;;;;;4957018;28;20796;-93
2021/06/27 01:06:05;;;;;;;30.30;21.10;;;14.20;99.90;;;;;;4969713;28;20107;-91
2021/06/27 01:08:34;;;;;;;26.10;21.45;;;14.20;99.90;;;;;;4972279;28;20516;-92
2021/06/27 01:11:04;;;;;;;28.00;20.83;;;14.10;99.90;;;;;;4965808;28;20057;-92
2021/06/27 01:13:33;;;;;;;27.48;21.60;;;14.00;99.90;;;;;;4940732;28;20056;-90
2021/06/27 01:16:00;;;;;;;30.08;21.27;;;14.00;99.90;;;;;;4962099;28;20117;-93
2021/06/27 01:18:27;;;;;;;28.98;22.02;;;14.00;99.90;;;;;;4956865;28;20057;-92
2021/06/27 01:20:54;;;;;;;28.13;22.52;;;14.00;99.90;;;;;;4956688;28;20051;-91
2021/06/27 01:23:23;;;;;;;27.95;22.55;;;14.10;99.90;;;;;;4986694;28;20048;-93
2021/06/27 01:25:53;;;;;;;34.78;21.95;;;14.10;99.90;;;;;;4987468;28;20047;-92
2021/06/27 01:28:23;;;;;;;27.40;21.73;;;14.10;99.90;;;;;;4990348;28;20137;-91
2021/06/27 01:30:50;;;;;;;29.52;23.00;;;14.10;99.90;;;;;;4991707;28;20438;-92
2021/06/27 01:33:22;;;;;;;29.08;22.45;;;14.10;99.90;;;;;;4965643;28;20058;-92
2021/06/27 01:35:50;;;;;;;27.70;22.20;;;14.10;99.90;;;;;;4988558;28;20559;-91
2021/06/27 01:38:17;;;;;;;33.75;22.13;;;14.10;99.90;;;;;;4972767;28;20137;-92
2021/06/27 01:40:44;;;;;;;29.75;22.70;;;14.10;99.90;;;;;;4991248;28;20435;-92
2021/06/27 01:43:21;;;;;;;32.30;22.70;;;14.00;99.90;;;;;;4992405;28;20437;-92
2021/06/27 01:45:55;;;;;;;31.50;24.42;;;14.00;99.90;;;;;;4987775;28;20174;-92
2021/06/27 01:48:28;;;;;;;33.20;24.13;;;13.90;99.90;;;;;;4985830;28;20043;-92
2021/06/27 01:50:57;;;;;;;31.05;24.23;;;13.90;99.90;;;;;;4983438;28;20050;-92
2021/06/27 01:53:28;;;;;;;34.05;24.95;;;14.00;99.90;;;;;;4975291;28;20744;-91
2021/06/27 01:56:06;;;;;;;32.88;25.40;;;14.00;99.90;;;;;;4991818;28;20429;-92
2021/06/27 01:58:40;;;;;;;32.28;24.58;;;14.00;99.90;;;;;;4986236;28;20521;-90
2021/06/27 02:01:11;;;;;;;29.80;23.75;;;13.90;99.90;;;;;;4986767;28;20052;-93
2021/06/27 02:03:44;;;;;;;34.40;24.73;;;13.90;99.90;;;;;;4987287;28;20046;-92
2021/06/27 02:06:16;;;;;;;37.50;25.02;;;13.90;99.90;;;;;;4987746;28;20101;-92
2021/06/27 02:08:46;;;;;;;32.55;24.40;;;13.90;99.90;;;;;;4991098;28;20420;-92
2021/06/27 02:11:16;;;;;;;33.30;23.98;;;13.90;99.90;;;;;;4990260;28;20448;-91
2021/06/27 02:13:43;;;;;;;28.67;21.70;;;13.90;99.90;;;;;;4969541;28;20054;-91
2021/06/27 02:16:13;;;;;;;25.73;20.42;;;13.90;99.90;;;;;;4977498;28;20050;-91
2021/06/27 02:18:50;;;;;;;27.30;21.35;;;13.90;99.90;;;;;;4988338;28;20061;-92
2021/06/27 02:21:18;;;;;;;30.70;23.20;;;13.80;99.90;;;;;;4984121;28;20035;-91
2021/06/27 02:23:45;;;;;;;34.25;24.25;;;13.80;99.90;;;;;;4964710;28;20133;-91
2021/06/27 02:26:12;;;;;;;30.75;23.05;;;13.70;99.90;;;;;;4980337;28;20054;-91
2021/06/27 02:28:44;;;;;;;30.90;23.77;;;13.70;99.90;;;;;;4972588;28;20051;-93
2021/06/27 02:31:12;;;;;;;34.60;24.77;;;13.70;99.90;;;;;;4951885;29;20055;-91
2021/06/27 02:33:40;;;;;;;34.30;25.35;;;13.70;99.90;;;;;;4967532;28;20050;-94
2021/06/27 02:36:09;;;;;;;29.13;22.98;;;13.70;99.90;;;;;;4951808;28;20110;-91
2021/06/27 02:38:36;;;;;;;29.48;22.83;;;13.70;99.90;;;;;;4969743;28;20046;-90
2021/06/27 02:41:05;;;;;;;29.25;21.02;;;13.70;99.90;;;;;;4958250;28;20444;-92
2021/06/27 02:43:34;;;;;;;26.25;20.00;;;13.70;99.90;;;;;;4958328;28;20158;-90
2021/06/27 02:46:02;;;;;;;27.10;19.80;;;13.60;99.90;;;;;;4973476;28;20541;-91
2021/06/27 02:48:31;;;;;;;25.52;20.33;;;13.60;99.90;;;;;;4971231;28;20601;-92
2021/06/27 02:51:00;;;;;;;27.83;19.70;;;13.50;99.90;;;;;;4958552;28;20123;-93
2021/06/27 02:53:28;;;;;;;26.85;19.92;;;13.50;99.90;;;;;;4966137;28;20069;-93
2021/06/27 02:56:07;;;;;;;27.60;20.80;;;13.60;99.90;;;;;;4947232;28;20118;-92
2021/06/27 02:58:46;;;;;;;26.80;21.30;;;13.60;99.90;;;;;;4966457;28;20046;-91
2021/06/27 03:01:15;;;;;;;25.35;20.13;;;13.60;99.90;;;;;;4954520;28;20130;-92
2021/06/27 03:03:44;;;;;;;26.15;21.27;;;13.60;99.90;;;;;;4956276;28;20046;-91
2021/06/27 03:06:13;;;;;;;28.38;21.95;;;13.60;99.90;;;;;;4971649;28;20130;-92
2021/06/27 03:08:42;;;;;;;30.00;21.33;;;13.70;99.90;;;;;;4964959;28;20050;-93
2021/06/27 03:11:10;;;;;;;31.65;22.10;;;13.60;99.90;;;;;;4965299;28;20043;-91
2021/06/27 03:13:39;;;;;;;30.58;23.08;;;13.70;99.90;;;;;;4961044;28;20391;-91
2021/06/27 03:16:07;;;;;;;32.55;21.27;;;13.70;99.90;;;;;;4963950;28;20125;-93
2021/06/27 03:18:36;;;;;;;30.95;21.67;;;13.80;99.90;;;;;;4962290;28;20651;-92
2021/06/27 03:21:03;;;;;;;31.02;23.08;;;13.80;99.90;;;;;;4958326;28;20058;-91
2021/06/27 03:23:30;;;;;;;27.90;21.95;;;13.80;99.90;;;;;;4971723;28;20062;-92
2021/06/27 03:25:57;;;;;;;27.08;21.83;;;13.90;99.90;;;;;;4947636;28;20134;-91
2021/06/27 03:28:31;;;;;;;27.20;21.30;;;13.90;99.90;;;;;;4966953;28;20142;-92
2021/06/27 03:30:58;;;;;;;30.88;23.13;;;13.90;99.90;;;;;;4980512;28;20357;-91
2021/06/27 03:33:27;;;;;;;26.00;20.70;;;14.00;99.90;;;;;;4985816;28;20097;-92
2021/06/27 03:35:54;;;;;;;29.00;20.35;;;14.00;99.90;;;;;;4975621;28;20218;-92
2021/06/27 03:38:37;;;;;;;30.80;21.20;;;14.10;99.90;;;;;;4978111;28;20061;-91
2021/06/27 03:41:04;;;;;;;25.70;20.50;;;14.00;99.90;;;;;;4959662;28;20087;-93
2021/06/27 03:43:31;;;;;;;25.90;20.25;;;14.10;99.90;;;;;;4959860;28;20130;-92
2021/06/27 03:45:57;;;;;;;24.60;19.75;;;14.10;99.90;;;;;;4964896;28;20125;-91
2021/06/27 03:48:29;;;;;;;27.27;20.33;;;14.20;99.90;;;;;;4963113;28;20181;-93
2021/06/27 03:50:56;;;;;;;31.65;19.90;;;14.20;99.90;;;;;;4947516;28;20628;-93
2021/06/27 03:53:23;;;;;;;21.52;18.00;;;14.20;99.90;;;;;;4963015;28;20091;-91
2021/06/27 03:55:56;;;;;;;25.75;16.88;;;14.30;99.90;;;;;;4969511;28;20537;-91
2021/06/27 03:58:27;;;;;;;22.92;15.32;;;14.30;99.90;;;;;;4970611;28;20130;-91
2021/06/27 04:00:57;;;;;;;18.33;15.05;;;14.20;99.90;;;;;;4953803;28;20062;-92
2021/06/27 04:03:24;;;;;;;21.80;16.35;;;14.20;99.90;;;;;;4967671;28;20085;-93
2021/06/27 04:05:53;;;;;;;22.02;17.00;;;14.20;99.90;;;;;;4963761;28;20540;-91
2021/06/27 04:08:20;;;;;;;20.27;16.30;;;14.20;99.90;;;;;;4968205;28;20371;-91
2021/06/27 04:10:47;;;;;;;24.95;16.15;;;14.30;99.90;;;;;;4954621;28;20043;-91
2021/06/27 04:13:15;;;;;;;19.05;16.48;;;14.40;99.90;;;;;;4953371;28;20060;-92
2021/06/27 04:15:43;;;;;;;19.55;16.23;;;14.50;99.90;;;;;;4969370;28;20043;-90
2021/06/27 04:18:10;;;;;;;22.50;15.38;;;14.60;99.90;;;;;;4954861;28;20046;-89
2021/06/27 04:20:37;;;;;;;23.70;15.55;;;14.60;99.90;;;;;;4971148;28;20153;-91
2021/06/27 04:23:05;;;;;;;20.85;16.17;;;14.60;99.90;;;;;;4957953;28;20114;-90
2021/06/27 04:25:35;;;;;;;18.58;16.38;;;14.70;99.90;;;;;;4970162;28;20153;-89
2021/06/27 04:28:03;;;;;;;19.10;15.40;;;14.70;99.90;;;;;;4979255;28;20066;-92
2021/06/27 04:30:35;;;;;;;17.02;15.23;;;14.80;99.90;;;;;;4989792;28;20458;-90
2021/06/27 04:33:12;;;;;;;16.33;14.10;;;14.90;99.90;;;;;;4991965;28;20138;-92
2021/06/27 04:35:42;;;;;;;17.23;14.00;;;15.00;99.90;;;;;;4990165;28;20089;-92
2021/06/27 04:38:16;;;;;;;14.27;12.77;;;15.10;99.90;;;;;;4981047;28;20085;-90
2021/06/27 04:40:47;;;;;;;14.50;12.88;;;15.20;99.90;;;;;;4969309;28;20046;-91
2021/06/27 04:43:13;;;;;;;16.20;13.10;;;15.30;99.90;;;;;;4991650;28;20426;-91
2021/06/27 04:45:41;;;;;;;14.20;12.77;;;15.40;99.90;;;;;;4976384;28;20129;-91
2021/06/27 04:48:12;;;;;;;13.38;12.00;;;15.40;99.90;;;;;;4981838;28;20407;-92
2021/06/27 04:50:40;;;;;;;14.23;12.18;;;15.50;99.90;;;;;;4990921;28;20065;-90
2021/06/27 04:53:13;;;;;;;13.10;11.75;;;15.50;99.90;;;;;;4973667;28;20128;-89
2021/06/27 04:55:40;;;;;;;13.43;11.40;;;15.60;99.90;;;;;;4975915;28;20050;-89
2021/06/27 04:58:07;;;;;;;15.05;13.35;;;15.60;99.90;;;;;;4988301;28;20061;-91
2021/06/27 05:00:33;;;;;;;14.77;13.27;;;15.70;99.90;;;;;;4990433;28;20057;-90
2021/06/27 05:03:01;;;;;;;14.88;12.50;;;15.70;99.90;;;;;;4975416;28;20072;-90
2021/06/27 05:05:31;;;;;;;17.05;13.63;;;15.70;99.90;;;;;;4990448;28;20053;-91
2021/06/27 05:07:58;;;;;;;16.25;13.57;;;15.70;99.90;;;;;;4978569;28;20046;-89
2021/06/27 05:10:25;;;;;;;20.65;12.98;;;15.80;99.90;;;;;;4992024;28;20097;-91
2021/06/27 05:12:52;;;;;;;14.10;11.13;;;15.80;99.90;;;;;;4982180;28;20055;-90
2021/06/27 05:15:19;;;;;;;12.55;11.15;;;15.90;99.90;;;;;;4988562;28;20444;-90
2021/06/27 05:17:49;;;;;;;13.23;10.50;;;16.10;99.90;;;;;;4988383;28;20469;-89
2021/06/27 05:20:16;;;;;;;11.40;10.20;;;16.20;99.90;;;;;;4993791;28;20638;-87
2021/06/27 05:22:43;;;;;;;13.88;9.95;;;16.30;99.90;;;;;;4984250;28;20126;-89
2021/06/27 05:25:11;;;;;;;14.70;10.02;;;16.40;99.90;;;;;;4982461;28;20065;-91
2021/06/27 05:27:40;;;;;;;11.20;9.48;;;16.50;99.90;;;;;;4991815;28;20500;-89
2021/06/27 05:30:08;;;;;;;10.70;9.00;;;16.60;99.90;;;;;;4988326;28;20327;-89
2021/06/27 05:32:35;;;;;;;10.13;9.00;;;16.60;99.90;;;;;;4989905;28;20042;-90
2021/06/27 05:35:05;;;;;;;14.05;10.68;;;16.60;99.90;;;;;;4989278;28;20121;-90
2021/06/27 05:37:35;;;;;;;13.77;11.75;;;16.80;99.90;;;;;;4973924;28;20206;-89
2021/06/27 05:40:04;;;;;;;15.77;11.50;;;16.80;99.90;;;;;;4989178;28;20125;-89
2021/06/27 05:42:31;;;;;;;12.75;10.65;;;16.90;99.90;;;;;;4974507;28;20450;-90
2021/06/27 05:44:58;;;;;;;14.68;10.68;;;17.00;99.90;;;;;;4978557;28;20047;-88
2021/06/27 05:47:26;;;;;;;13.95;10.93;;;16.90;99.90;;;;;;4979031;28;20097;-89
2021/06/27 05:49:56;;;;;;;16.25;11.73;;;17.00;99.90;;;;;;4989224;28;20092;-91
2021/06/27 05:52:23;;;;;;;15.98;11.90;;;17.00;99.90;;;;;;4991955;28;20133;-90
2021/06/27 05:54:49;;;;;;;11.38;9.95;;;17.10;99.90;;;;;;4974651;28;20125;-91
2021/06/27 05:57:19;;;;;;;10.95;8.95;;;17.20;99.90;;;;;;4990650;28;20038;-92
2021/06/27 05:59:48;;;;;;;10.90;9.80;;;17.20;99.90;;;;;;4984999;28;20098;-90
2021/06/27 06:02:15;;;;;;;11.75;10.55;;;17.20;99.90;;;;;;4992619;28;20046;-90
2021/06/27 06:04:44;;;;;;;11.18;9.98;;;17.30;99.90;;;;;;4992439;28;20137;-90
2021/06/27 06:07:11;;;;;;;11.82;10.63;;;17.40;99.90;;;;;;4979739;28;20125;-90
2021/06/27 06:09:38;;;;;;;12.75;10.57;;;17.60;99.90;;;;;;4991380;28;20038;-90
2021/06/27 06:12:08;;;;;;;11.90;9.98;;;17.70;99.90;;;;;;4992319;28;20046;-89
2021/06/27 06:14:37;;;;;;;12.40;9.98;;;17.90;99.90;;;;;;4987032;28;20062;-88
2021/06/27 06:17:06;;;;;;;13.77;10.63;;;18.20;99.90;;;;;;4968111;28;20072;-90
2021/06/27 06:19:37;;;;;;;12.80;8.50;;;18.40;99.90;;;;;;4969634;28;20473;-91
2021/06/27 06:22:09;;;;;;;9.98;8.48;;;18.50;99.90;;;;;;4977077;28;20051;-90
2021/06/27 06:24:36;;;;;;;13.80;7.95;;;18.80;99.90;;;;;;4984909;28;20077;-90
2021/06/27 06:27:03;;;;;;;9.05;7.45;;;19.10;99.90;;;;;;4984091;28;20068;-88
2021/06/27 06:29:30;;;;;;;7.90;7.10;;;19.50;99.90;;;;;;4969087;28;20082;-91
2021/06/27 06:31:57;;;;;;;10.13;7.15;;;19.90;99.90;;;;;;4970818;28;20122;-90
2021/06/27 06:34:24;;;;;;;9.13;6.72;;;20.40;99.90;;;;;;4989617;28;20487;-90
2021/06/27 06:36:51;;;;;;;9.32;6.50;;;20.80;99.90;;;;;;4978506;28;20072;-91
2021/06/27 06:39:20;;;;;;;7.35;6.45;;;21.00;99.90;;;;;;4989897;28;20129;-89
2021/06/27 06:41:49;;;;;;;6.75;6.15;;;20.90;99.90;;;;;;4988459;28;20058;-88
2021/06/27 06:44:16;;;;;;;8.95;6.68;;;20.60;99.90;;;;;;4991152;28;20039;-88
2021/06/27 06:46:45;;;;;;;7.10;6.40;;;20.50;99.90;;;;;;4986881;28;20145;-91
2021/06/27 06:49:12;;;;;;;7.05;6.00;;;20.70;99.90;;;;;;4975411;28;20614;-88
2021/06/27 06:51:39;;;;;;;6.57;5.75;;;21.20;99.90;;;;;;5000323;28;20043;-92
2021/06/27 06:54:06;;;;;;;9.30;5.63;;;21.70;99.90;;;;;;4987372;28;20124;-90
2021/06/27 06:56:45;;;;;;;6.30;5.70;;;22.30;99.90;;;;;;4995035;28;20130;-91
2021/06/27 06:59:12;;;;;;;6.53;5.60;;;22.60;99.90;;;;;;4971249;28;20090;-92
2021/06/27 07:01:41;;;;;;;6.45;5.32;;;22.90;99.90;;;;;;4987956;28;20593;-90
2021/06/27 07:04:10;;;;;;;8.10;5.30;;;22.90;99.90;;;;;;4959685;28;20145;-89
2021/06/27 07:06:37;;;;;;;7.53;5.43;;;22.90;99.90;;;;;;4985677;28;20062;-90
2021/06/27 07:09:05;;;;;;;5.57;5.07;;;23.40;99.90;;;;;;4983239;28;20453;-90
2021/06/27 07:11:33;;;;;;;5.80;5.30;;;23.60;99.90;;;;;;4974762;28;20051;-91
2021/06/27 07:14:00;;;;;;;6.18;5.13;;;24.00;99.90;;;;;;4988342;28;20057;-91
2021/06/27 07:16:27;;;;;;;5.75;4.80;;;24.30;99.90;;;;;;4984949;28;20042;-90
2021/06/27 07:18:54;;;;;;;4.18;3.88;;;24.50;99.90;;;;;;4980752;28;20043;-89
2021/06/27 07:21:21;;;;;;;6.43;4.75;;;24.80;99.90;;;;;;4975723;28;20073;-87
2021/06/27 07:23:48;;;;;;;11.05;4.90;;;24.90;99.90;;;;;;4969881;28;20075;-90
2021/06/27 07:26:15;;;;;;;5.22;4.63;;;25.00;99.90;;;;;;4977945;28;20104;-91
2021/06/27 07:28:45;;;;;;;5.43;4.93;;;25.00;99.90;;;;;;4984668;28;20070;-90
2021/06/27 07:31:12;;;;;;;4.70;4.30;;;25.20;99.90;;;;;;4985405;28;20177;-89
2021/06/27 07:33:41;;;;;;;5.70;4.57;;;25.50;99.90;;;;;;4979870;28;20054;-88
2021/06/27 07:36:08;;;;;;;5.22;3.95;;;25.70;99.90;;;;;;4969242;28;20129;-88
2021/06/27 07:38:35;;;;;;;4.50;3.92;;;26.10;96.40;;;;;;4988728;28;20078;-90
2021/06/27 07:41:02;;;;;;;6.93;4.20;;;26.40;98.20;;;;;;4991304;28;20057;-89
2021/06/27 07:43:33;;;;;;;4.30;3.85;;;26.50;96.70;;;;;;4985913;28;20046;-91
2021/06/27 07:46:00;;;;;;;4.13;3.83;;;26.30;94.20;;;;;;4983711;28;20081;-89
2021/06/27 07:48:27;;;;;;;4.00;3.70;;;26.20;94.20;;;;;;4973141;28;20377;-87
2021/06/27 07:50:57;;;;;;;4.43;4.03;;;26.20;94.60;;;;;;4978568;28;20134;-87
2021/06/27 07:53:24;;;;;;;4.43;4.03;;;26.30;94.40;;;;;;4979912;28;20168;-87
2021/06/27 07:55:51;;;;;;;5.15;3.50;;;26.50;94.90;;;;;;4973740;28;20042;-88
2021/06/27 07:58:20;;;;;;;3.65;3.35;;;26.60;93.10;;;;;;4987501;28;20085;-88
2021/06/27 08:00:49;;;;;;;6.00;4.20;;;26.90;93.70;;;;;;4964240;28;20060;-88
2021/06/27 08:03:16;;;;;;;4.10;3.70;;;27.10;92.60;;;;;;4971408;28;20142;-87
2021/06/27 08:05:43;;;;;;;4.20;3.80;;;27.40;90.00;;;;;;4962005;28;20071;-88
2021/06/27 08:08:10;;;;;;;3.95;3.65;;;27.50;87.40;;;;;;4956715;28;20061;-88
2021/06/27 08:10:37;;;;;;;3.78;3.47;;;27.70;84.40;;;;;;4983741;28;20149;-87
2021/06/27 08:13:05;;;;;;;4.40;3.15;;;28.00;82.80;;;;;;4960411;28;20082;-88
2021/06/27 08:31:00;;;;;;;5.20;3.47;;;28.70;76.60;;;;;;4949087;29;20066;-88
2021/06/27 08:34:36;;;;;;;4.87;3.47;;;29.00;77.90;;;;;;4909152;29;20052;-87
2021/06/27 08:37:03;;;;;;;;;;;29.20;72.70;;;;;;4894813;29;20134;-88
2021/06/27 08:39:30;;;;;;;3.15;2.85;;;29.40;75.10;;;;;;4914195;29;19935;-87
2021/06/27 08:49:48;;;;;;;2.97;2.78;;;29.80;65.90;;;;;;4862560;29;20136;-88
2021/06/27 08:52:19;;;;;;;4.17;2.77;;;29.80;65.60;;;;;;4864785;29;20057;-86
2021/06/27 08:54:58;;;;;;;3.38;2.70;;;29.40;62.40;;;;;;4913729;29;20053;-88
2021/06/27 09:05:00;;;;;;;3.63;2.20;;;28.90;65.90;;;;;;4950856;28;20030;-88
2021/06/27 09:07:31;;;;;;;2.55;2.30;;;28.30;63.00;;;;;;4968585;28;20051;-89
2021/06/27 09:10:16;;;;;;;2.60;2.38;;;28.20;66.70;;;;;;4967002;28;20198;-89
2021/06/27 09:12:51;;;;;;;4.10;2.60;;;28.10;67.00;;;;;;4970488;28;20068;-88
2021/06/27 09:15:48;;;;;;;4.20;2.70;;;28.10;65.20;;;;;;4968295;28;20447;-87
2021/06/27 09:18:15;;;;;;;2.40;2.20;;;28.10;63.60;;;;;;4961099;28;20462;-88
2021/06/27 09:20:51;;;;;;;2.05;1.95;;;28.40;62.70;;;;;;4972484;28;20074;-87
2021/06/27 09:23:40;;;;;;;2.83;2.42;;;29.20;65.40;;;;;;4953423;28;20039;-90
2021/06/27 09:26:08;;;;;;;5.07;2.35;;;29.70;62.30;;;;;;4973061;28;20454;-89
2021/06/27 09:28:49;;;;;;;2.30;2.10;;;29.70;62.40;;;;;;4963950;28;20057;-91
2021/06/27 09:31:57;;;;;;;3.40;2.17;;;30.30;58.80;;;;;;4955452;28;20079;-87
2021/06/27 09:34:27;;;;;;;4.10;2.20;;;30.80;61.30;;;;;;4932223;29;20058;-88
2021/06/27 09:36:54;;;;;;;9.02;2.40;;;31.00;58.20;;;;;;4925684;29;20578;-89
2021/06/27 09:47:34;;;;;;;2.20;2.00;;;30.80;57.70;;;;;;4871712;29;20040;-85
2021/06/27 09:50:54;;;;;;;3.15;1.92;;;31.50;56.10;;;;;;4858965;29;20132;-87
2021/06/27 09:53:56;;;;;;;4.15;2.13;;;31.30;55.20;;;;;;4874426;29;20076;-86
2021/06/27 09:56:38;;;;;;;2.00;1.85;;;31.90;52.60;;;;;;5117021;27;20383;-88
2021/06/27 09:59:12;;;;;;;2.72;2.05;;;32.10;51.20;;;;;;5090106;28;20048;-88
2021/06/27 10:10:18;;;;;;;3.72;3.38;;;31.60;52.40;;;;;;5085200;28;20055;-86
2021/06/27 10:12:45;;;;;;;1.92;1.80;;;30.90;54.60;;;;;;5089943;28;20526;-85
2021/06/27 10:16:02;;;;;;;2.30;1.80;;;30.20;51.60;;;;;;5091860;28;20070;-88
2021/06/27 10:22:57;;;;;;;1.67;1.58;;;31.30;52.40;;;;;;5023545;28;20112;-87
2021/06/27 10:26:04;;;;;;;4.30;2.13;;;31.60;52.10;;;;;;4979714;28;20161;-85
2021/06/27 10:32:57;;;;;;;3.45;1.67;;;32.70;46.60;;;;;;5064381;28;20055;-89
2021/06/27 10:47:01;;;;;;;2.67;1.65;;;33.10;47.00;;;;;;5071007;28;20102;-90
2021/06/27 11:05:43;;;;;;;1.65;1.50;;;34.60;45.10;;;;;;4988838;28;20102;-88
2021/06/27 11:08:27;;;;;;;3.58;1.40;;;34.90;44.80;;;;;;4972030;28;20067;-88
2021/06/27 11:11:36;;;;;;;1.67;1.58;;;35.40;46.80;;;;;;5043358;28;20139;-87
2021/06/27 11:21:37;;;;;;;2.33;1.40;;;36.10;43.20;;;;;;5055695;28;20040;-89
2021/06/27 11:24:05;;;;;;;2.33;1.40;;;36.20;38.00;;;;;;5037439;28;20533;-90
2021/06/27 11:26:41;;;;;;;1.50;1.30;;;36.00;40.70;;;;;;5060197;28;20434;-85
2021/06/27 11:29:20;;;;;;;1.63;1.52;;;36.00;41.30;;;;;;5073102;28;20043;-86
2021/06/27 11:31:48;;;;;;;2.55;1.50;;;35.90;42.50;;;;;;5071119;28;20048;-87
2021/06/27 11:34:29;;;;;;;1.95;1.40;;;35.70;42.70;;;;;;5075139;28;20083;-88
2021/06/27 11:37:21;;;;;;;2.95;1.38;;;36.10;41.70;;;;;;5075411;28;20089;-86
2021/06/27 11:39:58;;;;;;;1.10;1.02;;;36.40;41.20;;;;;;5076875;28;20040;-87
2021/06/27 11:42:28;;;;;;;2.47;1.10;;;36.60;39.20;;;;;;5079135;28;20140;-88
2021/06/27 11:45:11;;;;;;;1.27;1.15;;;36.70;36.90;;;;;;5080175;28;20048;-87
2021/06/27 11:47:50;;;;;;;1.98;1.40;;;36.40;36.60;;;;;;5105602;28;20053;-90
2021/06/27 11:50:23;;;;;;;1.27;1.20;;;35.90;40.70;;;;;;5072806;28;20057;-83
2021/06/27 11:52:58;;;;;;;1.40;1.27;;;35.70;38.40;;;;;;5089329;28;20122;-88
2021/06/27 11:55:27;;;;;;;3.60;1.20;;;36.20;41.80;;;;;;5087949;28;20177;-86
2021/06/27 11:57:54;;;;;;;1.33;1.20;;;36.80;40.70;;;;;;5072620;28;20079;-88
2021/06/27 12:00:44;;;;;;;1.90;1.00;;;37.70;35.90;;;;;;5069801;28;20104;-88
2021/06/27 12:03:14;;;;;;;2.28;1.00;;;37.00;36.40;;;;;;5085202;28;20123;-86
2021/06/27 12:05:57;;;;;;;1.40;1.27;;;36.60;37.80;;;;;;5101952;28;20114;-86
2021/06/27 12:08:29;;;;;;;2.97;1.20;;;36.80;39.40;;;;;;5071643;28;20052;-86
2021/06/27 12:10:58;;;;;;;1.10;0.98;;;36.50;39.20;;;;;;5070833;28;20144;-86
2021/06/27 12:13:27;;;;;;;1.15;1.00;;;36.60;37.70;;;;;;5072377;28;20172;-87
2021/06/27 12:15:59;;;;;;;1.48;1.10;;;36.70;37.30;;;;;;5075258;28;20083;-89
2021/06/27 12:18:31;;;;;;;1.17;1.02;;;37.10;33.40;;;;;;5069857;28;20430;-86
2021/06/27 12:21:12;;;;;;;2.97;0.90;;;37.10;35.20;;;;;;5077749;28;20083;-87
2021/06/27 12:23:42;;;;;;;0.95;0.95;;;36.50;35.50;;;;;;5076259;28;20136;-86
2021/06/27 12:26:09;;;;;;;2.85;1.00;;;36.00;37.10;;;;;;5109479;27;20147;-89
2021/06/27 12:28:54;;;;;;;2.80;1.08;;;35.90;34.30;;;;;;5099311;28;20634;-86
2021/06/27 12:31:32;;;;;;;0.93;0.88;;;35.90;37.00;;;;;;5084718;28;20056;-88
2021/06/27 12:34:05;;;;;;;2.90;1.05;;;36.30;34.40;;;;;;5082689;28;20469;-87
2021/06/27 12:36:51;;;;;;;0.85;0.80;;;36.80;35.80;;;;;;5077294;28;20384;-85
2021/06/27 12:39:23;;;;;;;1.25;1.15;;;37.10;35.20;;;;;;5081365;28;20406;-88
2021/06/27 12:42:07;;;;;;;1.08;0.88;;;36.80;34.50;;;;;;5076324;28;20053;-86
2021/06/27 12:44:53;;;;;;;1.08;1.00;;;37.10;37.30;;;;;;5067137;28;20117;-87
2021/06/27 12:47:32;;;;;;;1.33;1.08;;;37.40;35.90;;;;;;5084804;28;20047;-86
2021/06/27 12:50:02;;;;;;;1.15;1.02;;;37.30;39.00;;;;;;5110977;27;20067;-87
2021/06/27 12:52:32;;;;;;;1.27;1.17;;;36.90;35.00;;;;;;5068389;28;20469;-88
2021/06/27 12:55:14;;;;;;;1.42;1.00;;;36.60;35.20;;;;;;5092675;27;20358;-90
2021/06/27 12:57:55;;;;;;;2.05;0.82;;;36.50;35.60;;;;;;5078615;28;20099;-89
2021/06/27 13:00:22;;;;;;;1.67;1.20;;;37.20;34.30;;;;;;5086028;28;20151;-87
2021/06/27 13:02:51;;;;;;;1.42;1.15;;;37.30;36.50;;;;;;5104347;28;20095;-88
2021/06/27 13:05:19;;;;;;;1.67;1.08;;;37.40;34.50;;;;;;5097342;27;20351;-87
2021/06/27 13:07:56;;;;;;;1.23;1.08;;;37.00;35.00;;;;;;5071058;28;20076;-87
2021/06/27 13:10:27;;;;;;;1.05;0.95;;;36.70;36.40;;;;;;5072230;28;20127;-87
2021/06/27 13:13:06;;;;;;;1.70;1.40;;;37.00;33.80;;;;;;5064536;28;20123;-86
2021/06/27 13:15:50;;;;;;;1.10;1.00;;;37.20;36.40;;;;;;5078429;28;20052;-87
2021/06/27 13:18:20;;;;;;;2.03;1.02;;;37.50;38.30;;;;;;5054206;28;20488;-88
2021/06/27 13:20:54;;;;;;;3.17;1.20;;;37.70;37.10;;;;;;5071176;28;20457;-91
2021/06/27 13:23:36;;;;;;;2.83;1.20;;;36.60;36.10;;;;;;5070158;28;20458;-88
2021/06/27 13:26:11;;;;;;;1.00;1.00;;;36.00;38.40;;;;;;5096999;28;20123;-91
2021/06/27 13:28:49;;;;;;;1.20;1.10;;;36.00;38.30;;;;;;5070446;28;20079;-88
2021/06/27 13:31:32;;;;;;;2.65;1.33;;;35.60;38.50;;;;;;5068754;28;20060;-87
2021/06/27 13:34:02;;;;;;;1.42;1.35;;;35.20;38.00;;;;;;5085193;28;20059;-88
2021/06/27 13:36:31;;;;;;;1.60;1.50;;;34.60;40.00;;;;;;5071119;28;20079;-90
2021/06/27 13:39:10;;;;;;;3.17;2.55;;;33.60;41.00;;;;;;5073436;28;20477;-87
2021/06/27 13:41:38;;;;;;;3.50;2.20;;;32.90;41.60;;;;;;5084816;28;20079;-89
2021/06/27 13:44:06;;;;;;;4.88;2.00;;;32.40;41.40;;;;;;5073608;28;20049;-88
2021/06/27 13:46:33;;;;;;;2.38;1.23;;;32.10;42.70;;;;;;5067763;28;20098;-89
2021/06/27 13:49:01;;;;;;;3.72;2.50;;;31.90;42.50;;;;;;5052943;28;20053;-88
2021/06/27 13:51:31;;;;;;;3.00;2.13;;;31.60;45.10;;;;;;5103650;28;20056;-87
2021/06/27 13:53:58;;;;;;;1.30;1.20;;;31.60;45.00;;;;;;5069032;28;20127;-87
2021/06/27 13:56:26;;;;;;;1.85;1.67;;;32.00;43.10;;;;;;5085790;28;20087;-88
2021/06/27 13:59:01;;;;;;;1.70;1.40;;;33.00;44.80;;;;;;5071697;28;20075;-90
2021/06/27 14:01:32;;;;;;;3.83;1.60;;;34.40;43.30;;;;;;5069265;28;20060;-90
2021/06/27 14:04:02;;;;;;;1.35;1.25;;;34.70;40.50;;;;;;5073172;28;20044;-89
2021/06/27 14:06:31;;;;;;;1.67;1.20;;;34.70;40.10;;;;;;5072519;28;20052;-88
2021/06/27 14:08:58;;;;;;;2.55;1.60;;;34.80;40.70;;;;;;5069645;28;20480;-85
2021/06/27 14:11:35;;;;;;;2.55;1.30;;;34.80;41.80;;;;;;5085921;28;20074;-89
2021/06/27 14:14:05;;;;;;;1.67;1.58;;;34.80;40.50;;;;;;5053990;28;20357;-87
2021/06/27 14:16:45;;;;;;;1.60;1.50;;;34.40;41.30;;;;;;5073904;28;20049;-89
2021/06/27 14:19:18;;;;;;;2.25;1.40;;;34.30;42.30;;;;;;5052610;28;20075;-88
2021/06/27 14:21:48;;;;;;;2.88;1.52;;;34.50;40.70;;;;;;5082417;28;20496;-87
2021/06/27 14:24:15;;;;;;;2.10;1.30;;;34.60;42.30;;;;;;5066642;28;20093;-87
2021/06/27 14:26:44;;;;;;;2.55;1.48;;;34.30;40.00;;;;;;5069093;28;20044;-88
2021/06/27 14:29:11;;;;;;;1.75;1.50;;;33.80;41.00;;;;;;5063936;28;20361;-86
2021/06/27 14:31:38;;;;;;;1.40;1.33;;;33.40;42.50;;;;;;5074608;28;20079;-87